createdAt,value
2018-03-23T00:00:44.512Z,83.42
2018-03-23T00:03:17.811Z,83.41
2018-03-23T00:05:50.948Z,83.51
2018-03-23T00:08:24.788Z,83.48
2018-03-23T00:10:57.739Z,83.14
2018-03-23T00:13:31.195Z,83.22
2018-03-23T00:16:04.250Z,83.47
2018-03-23T00:18:37.495Z,83.67
2018-03-23T00:21:10.907Z,83.89
2018-03-23T00:23:43.847Z,83.77
2018-03-23T00:26:17.653Z,83.38
2018-03-23T00:28:51.944Z,83.51
2018-03-23T00:31:24.905Z,83.44
2018-03-23T00:33:58.259Z,84.05
2018-03-23T00:36:31.362Z,83.81
2018-03-23T00:39:04.947Z,83.53
2018-03-23T00:41:40.502Z,83.85
2018-03-23T00:44:14.372Z,83.82
2018-03-23T00:46:47.880Z,84.06
2018-03-23T00:49:21.016Z,83.89
2018-03-23T00:51:53.896Z,83.76
2018-03-23T00:54:27.394Z,83.80
2018-03-23T00:57:05.997Z,83.97
2018-03-23T00:59:39.680Z,83.87
2018-03-23T01:02:12.735Z,84.03
2018-03-23T01:04:46.367Z,84.27
2018-03-23T01:07:19.646Z,84.39
2018-03-23T01:09:52.629Z,84.46
2018-03-23T01:12:26.055Z,84.28
2018-03-23T01:14:59.259Z,84.53
2018-03-23T01:17:32.385Z,84.35
2018-03-23T01:22:37.048Z,84.24
2018-03-23T01:25:10.121Z,84.02
2018-03-23T01:27:43.707Z,84.41
2018-03-23T01:30:17.214Z,84.09
2018-03-23T01:32:52.959Z,84.21
2018-03-23T01:35:26.318Z,84.27
2018-03-23T01:37:59.647Z,84.43
2018-03-23T01:40:32.643Z,84.26
2018-03-23T01:43:06.396Z,84.74
2018-03-23T01:45:39.311Z,84.51
2018-03-23T01:48:12.939Z,85.23
2018-03-23T01:50:46.167Z,85.76
2018-03-23T01:53:28.140Z,86.50
2018-03-23T01:56:02.714Z,86.48
2018-03-23T01:58:35.860Z,85.88
2018-03-23T02:01:08.939Z,86.30
2018-03-23T02:03:41.983Z,86.21
2018-03-23T02:06:15.225Z,85.47
2018-03-23T02:08:48.314Z,85.24
2018-03-23T02:11:21.325Z,85.10
2018-03-23T02:13:55.617Z,84.88
2018-03-23T02:16:29.036Z,84.55
2018-03-23T02:19:03.892Z,84.60
2018-03-23T02:21:37.560Z,84.74
2018-03-23T02:24:11.076Z,84.55
2018-03-23T02:26:44.064Z,84.40
2018-03-23T02:29:16.997Z,83.91
2018-03-23T02:31:50.886Z,84.11
2018-03-23T02:34:23.764Z,83.82
2018-03-23T02:36:56.714Z,84.16
2018-03-23T02:39:29.980Z,84.22
2018-03-23T02:42:03.230Z,83.76
2018-03-23T02:44:36.187Z,83.80
2018-03-23T02:47:09.446Z,83.95
2018-03-23T02:49:42.750Z,84.18
2018-03-23T02:52:16.161Z,84.26
2018-03-23T02:54:49.453Z,84.29
2018-03-23T02:57:22.851Z,84.33
2018-03-23T02:59:55.975Z,84.20
2018-03-23T03:02:28.944Z,83.96
2018-03-23T03:05:01.932Z,83.77
2018-03-23T03:07:34.934Z,83.78
2018-03-23T03:10:08.091Z,83.81
2018-03-23T03:12:42.160Z,83.76
2018-03-23T03:15:15.487Z,83.83
2018-03-23T03:17:48.670Z,83.92
2018-03-23T03:20:22.045Z,83.87
2018-03-23T03:22:55.801Z,83.78
2018-03-23T03:25:28.703Z,83.92
2018-03-23T03:28:01.856Z,83.73
2018-03-23T03:30:37.651Z,83.59
2018-03-23T03:33:10.502Z,83.42
2018-03-23T03:35:43.426Z,83.83
2018-03-23T03:45:04.347Z,83.79
2018-03-23T03:47:37.612Z,83.93
2018-03-23T03:50:10.750Z,83.79
2018-03-23T03:52:44.376Z,83.89
2018-03-23T03:55:18.401Z,83.96
2018-03-23T03:57:52.229Z,83.69
2018-03-23T04:00:25.811Z,83.60
2018-03-23T04:02:59.757Z,83.82
2018-03-23T04:05:32.757Z,84.26
2018-03-23T04:08:05.824Z,84.33
2018-03-23T04:10:38.937Z,84.40
2018-03-23T04:13:11.984Z,84.47
2018-03-23T04:15:45.202Z,84.21
2018-03-23T04:18:18.348Z,84.06
2018-03-23T04:20:51.402Z,84.36
2018-03-23T04:23:24.537Z,84.41
2018-03-23T04:25:57.537Z,84.52
2018-03-23T04:28:31.015Z,84.57
2018-03-23T04:31:04.330Z,84.51
2018-03-23T04:33:37.708Z,84.45
2018-03-23T04:36:12.077Z,84.18
2018-03-23T04:38:46.252Z,84.28
2018-03-23T04:41:19.310Z,84.52
2018-03-23T04:43:52.907Z,84.20
2018-03-23T04:46:26.553Z,84.24
2018-03-23T04:48:59.694Z,84.24
2018-03-23T04:51:33.119Z,83.71
2018-03-23T04:54:06.828Z,83.79
2018-03-23T04:56:39.876Z,83.69
2018-03-23T04:59:13.680Z,83.86
2018-03-23T05:01:46.879Z,83.61
2018-03-23T05:04:20.037Z,83.80
2018-03-23T05:06:53.041Z,83.90
2018-03-23T05:09:26.669Z,83.96
2018-03-23T05:11:59.788Z,83.79
2018-03-23T05:14:33.011Z,83.58
2018-03-23T05:17:06.669Z,83.75
2018-03-23T05:19:39.920Z,83.75
2018-03-23T05:22:13.149Z,83.90
2018-03-23T05:24:47.348Z,84.11
2018-03-23T05:27:20.540Z,83.87
2018-03-23T05:29:53.864Z,83.75
2018-03-23T05:32:27.097Z,83.29
2018-03-23T05:35:00.140Z,84.14
2018-03-23T05:37:34.114Z,83.58
2018-03-23T05:40:07.680Z,83.54
2018-03-23T05:42:40.781Z,83.60
2018-03-23T05:45:14.152Z,83.78
2018-03-23T05:47:47.269Z,83.66
2018-03-23T05:50:20.325Z,83.36
2018-03-23T05:52:54.048Z,83.34
2018-03-23T05:55:28.032Z,82.94
2018-03-23T05:58:01.256Z,83.03
2018-03-23T06:00:35.121Z,82.70
2018-03-23T06:03:08.198Z,82.73
2018-03-23T06:05:41.362Z,82.45
2018-03-23T06:08:15.173Z,82.32
2018-03-23T06:10:48.181Z,82.30
2018-03-23T06:13:26.501Z,81.99
2018-03-23T06:15:59.837Z,81.85
2018-03-23T06:18:33.187Z,81.47
2018-03-23T06:21:09.509Z,81.50
2018-03-23T06:23:43.215Z,81.50
2018-03-23T06:26:16.616Z,81.74
2018-03-23T06:28:51.438Z,81.35
2018-03-23T06:31:26.574Z,81.06
2018-03-23T06:34:02.234Z,81.11
2018-03-23T06:36:42.052Z,81.14
2018-03-23T06:39:20.500Z,80.74
2018-03-23T06:41:54.701Z,80.86
2018-03-23T06:44:31.850Z,81.00
2018-03-23T06:47:07.591Z,81.30
2018-03-23T06:49:42.513Z,81.02
2018-03-23T06:52:18.008Z,81.17
2018-03-23T06:55:04.139Z,81.83
2018-03-23T06:57:43.433Z,81.54
2018-03-23T07:00:23.774Z,82.06
2018-03-23T07:02:57.355Z,81.98
2018-03-23T07:05:32.623Z,81.72
2018-03-23T07:08:08.206Z,81.82
2018-03-23T07:10:41.978Z,81.48
2018-03-23T07:13:15.082Z,81.79
2018-03-23T07:15:50.161Z,81.57
2018-03-23T07:18:35.158Z,81.78
2018-03-23T07:21:08.703Z,81.93
2018-03-23T07:23:42.738Z,81.77
2018-03-23T07:26:16.845Z,81.76
2018-03-23T07:28:49.982Z,81.67
2018-03-23T07:31:23.330Z,81.34
2018-03-23T07:33:56.478Z,80.88
2018-03-23T07:36:29.922Z,80.41
2018-03-23T07:39:03.459Z,80.24
2018-03-23T07:41:37.708Z,80.31
2018-03-23T07:44:11.376Z,80.27
2018-03-23T07:46:47.293Z,80.51
2018-03-23T07:49:21.976Z,80.15
2018-03-23T07:51:55.486Z,79.21
2018-03-23T07:54:30.650Z,79.11
2018-03-23T07:57:04.812Z,78.91
2018-03-23T07:59:41.590Z,79.68
2018-03-23T08:02:17.063Z,79.65
2018-03-23T08:04:50.878Z,79.52
2018-03-23T08:07:24.361Z,79.43
2018-03-23T08:09:58.057Z,79.67
2018-03-23T08:12:31.388Z,79.13
2018-03-23T08:15:06.638Z,79.46
2018-03-23T08:17:41.836Z,79.13
2018-03-23T08:20:15.214Z,79.21
2018-03-23T08:22:48.365Z,78.98
2018-03-23T08:25:21.480Z,78.80
2018-03-23T08:27:55.113Z,78.77
2018-03-23T08:30:28.887Z,79.14
2018-03-23T08:33:02.284Z,78.81
2018-03-23T08:35:36.203Z,78.65
2018-03-23T08:38:09.853Z,78.63
2018-03-23T08:40:47.313Z,79.12
2018-03-23T08:43:20.576Z,78.48
2018-03-23T08:45:54.275Z,77.93
2018-03-23T08:48:27.993Z,77.32
2018-03-23T08:51:08.620Z,76.94
2018-03-23T08:53:43.480Z,76.13
2018-03-23T08:56:19.262Z,75.09
2018-03-23T08:58:53.001Z,74.38
2018-03-23T09:01:26.519Z,73.91
2018-03-23T09:03:59.956Z,74.05
2018-03-23T09:06:33.135Z,73.46
2018-03-23T09:09:06.871Z,73.27
2018-03-23T09:11:42.428Z,73.50
2018-03-23T09:14:16.433Z,72.47
2018-03-23T09:16:50.005Z,72.24
2018-03-23T09:19:24.379Z,72.17
2018-03-23T09:21:59.096Z,72.75
2018-03-23T09:24:32.753Z,73.35
2018-03-23T09:27:08.154Z,74.41
2018-03-23T09:29:47.928Z,74.51
2018-03-23T09:32:24.338Z,73.74
2018-03-23T09:34:58.362Z,72.10
2018-03-23T09:37:33.632Z,71.46
2018-03-23T09:40:07.795Z,71.55
2018-03-23T09:42:49.126Z,70.37
2018-03-23T09:45:29.672Z,68.18
2018-03-23T09:48:04.116Z,68.44
2018-03-23T09:50:37.907Z,68.19
2018-03-23T09:53:10.986Z,67.21
2018-03-23T09:55:44.936Z,66.17
2018-03-23T09:58:18.711Z,66.55
2018-03-23T10:00:53.363Z,66.05
2018-03-23T10:03:28.185Z,65.99
2018-03-23T10:06:02.722Z,67.07
2018-03-23T10:08:36.632Z,64.67
2018-03-23T10:11:10.216Z,62.92
2018-03-23T10:13:44.083Z,64.60
2018-03-23T10:16:19.669Z,61.74
2018-03-23T10:18:54.344Z,61.73
2018-03-23T10:21:28.553Z,61.34
2018-03-23T10:24:02.747Z,61.54
2018-03-23T10:26:36.241Z,62.41
2018-03-23T10:29:11.166Z,61.02
2018-03-23T10:31:44.560Z,60.09
2018-03-23T10:34:18.103Z,60.06
2018-03-23T10:36:51.496Z,60.01
2018-03-23T10:39:25.323Z,61.07
2018-03-23T10:41:58.661Z,60.53
2018-03-23T10:44:34.508Z,61.13
2018-03-23T10:47:09.787Z,62.09
2018-03-23T10:49:43.594Z,60.94
2018-03-23T10:52:17.963Z,63.36
2018-03-23T10:54:52.806Z,61.71
2018-03-23T10:57:26.270Z,61.21
2018-03-23T10:59:59.538Z,60.23
2018-03-23T11:02:41.246Z,59.21
2018-03-23T11:05:18.505Z,60.55
2018-03-23T11:07:54.982Z,61.29
2018-03-23T11:10:37.102Z,58.18
2018-03-23T11:13:14.163Z,57.96
2018-03-23T11:15:48.292Z,56.94
2018-03-23T11:18:24.217Z,56.25
2018-03-23T11:21:00.389Z,55.20
2018-03-23T11:23:36.751Z,55.00
2018-03-23T11:28:58.197Z,54.08
2018-03-23T11:31:36.341Z,53.76
2018-03-23T11:34:12.153Z,54.86
2018-03-23T11:41:31.754Z,56.46
2018-03-23T11:47:26.888Z,54.76
2018-03-23T11:53:09.266Z,54.52
2018-03-23T11:59:25.608Z,53.07
2018-03-23T12:02:11.190Z,53.19
2018-03-23T12:05:01.988Z,52.65
2018-03-23T12:07:49.539Z,52.70
2018-03-23T12:10:28.873Z,53.31
2018-03-23T12:13:14.707Z,57.01
2018-03-23T12:18:54.652Z,59.05
2018-03-23T12:21:38.564Z,58.70
2018-03-23T12:24:24.740Z,58.07
2018-03-23T12:27:04.363Z,58.45
2018-03-23T12:29:50.979Z,59.15
2018-03-23T12:32:30.906Z,59.68
2018-03-23T12:35:10.442Z,60.51
2018-03-23T12:37:46.660Z,59.87
2018-03-23T12:40:28.551Z,58.65
2018-03-23T12:43:07.850Z,58.11
2018-03-23T12:48:12.629Z,57.81
2018-03-23T12:50:49.498Z,58.05
2018-03-23T12:53:26.572Z,59.07
2018-03-23T12:56:00.742Z,58.92
2018-03-23T12:58:38.516Z,58.63
2018-03-23T13:01:14.140Z,57.55
2018-03-23T17:26:11.422Z,48.70
2018-03-23T17:29:01.165Z,56.60
2018-03-23T17:31:34.765Z,61.61
2018-03-23T17:34:19.004Z,64.22
2018-03-23T17:37:00.086Z,66.41
2018-03-23T17:42:06.187Z,69.36
2018-03-23T17:44:41.515Z,70.25
2018-03-23T17:47:14.929Z,70.96
2018-03-23T17:49:50.088Z,71.60
2018-03-23T17:52:24.856Z,71.70
2018-03-23T17:55:01.754Z,71.88
2018-03-23T17:57:42.404Z,71.69
2018-03-23T18:00:15.784Z,71.98
2018-03-23T18:02:49.388Z,72.74
2018-03-23T18:05:24.045Z,73.27
2018-03-23T18:10:25.609Z,73.59
2018-03-23T18:12:58.644Z,73.68
2018-03-23T18:15:32.883Z,73.17
2018-03-23T18:18:06.964Z,73.09
2018-03-23T18:20:40.739Z,72.91
2018-03-23T18:23:14.590Z,72.85
2018-03-23T18:25:48.995Z,72.81
2018-03-23T18:28:22.723Z,72.62
2018-03-23T18:30:56.479Z,72.54
2018-03-23T18:33:31.255Z,72.34
2018-03-23T18:36:05.425Z,72.18
2018-03-23T18:38:39.805Z,72.07
2018-03-23T18:41:13.114Z,71.70
2018-03-23T18:43:46.795Z,71.53
2018-03-23T18:46:20.450Z,71.18
2018-03-23T18:48:54.193Z,70.72
2018-03-23T18:51:28.162Z,70.25
2018-03-23T18:54:01.614Z,70.48
2018-03-23T18:56:34.918Z,70.72
2018-03-23T18:59:08.960Z,70.47
2018-03-23T19:01:44.050Z,71.09
2018-03-23T19:04:17.384Z,70.84
2018-03-23T19:06:50.685Z,70.88
2018-03-23T19:09:23.884Z,70.71
2018-03-23T19:11:57.138Z,70.49
2018-03-23T19:14:31.328Z,70.95
2018-03-23T19:17:04.681Z,71.02
2018-03-23T19:19:38.226Z,70.90
2018-03-23T19:22:12.455Z,71.09
2018-03-23T19:24:47.098Z,71.19
2018-03-23T19:27:21.727Z,71.27
2018-03-23T19:29:55.351Z,71.13
2018-03-23T19:32:29.034Z,71.18
2018-03-23T19:35:03.077Z,71.41
2018-03-23T19:37:36.638Z,71.12
2018-03-23T19:40:10.429Z,70.93
2018-03-23T19:42:43.570Z,71.06
2018-03-23T19:45:17.109Z,70.56
2018-03-23T19:47:51.115Z,70.96
2018-03-23T19:50:24.262Z,71.38
2018-03-23T19:52:57.506Z,71.54
2018-03-23T19:55:30.787Z,71.57
2018-03-23T19:58:03.898Z,71.77
2018-03-23T20:00:37.153Z,71.41
2018-03-23T20:03:11.666Z,71.19
2018-03-23T20:05:45.469Z,71.05
2018-03-23T20:08:19.166Z,71.28
2018-03-23T20:10:53.046Z,71.25
2018-03-23T20:13:26.919Z,71.82
2018-03-23T20:16:00.167Z,72.55
2018-03-23T20:18:35.228Z,72.35
2018-03-23T20:21:11.516Z,72.05
2018-03-23T20:23:44.822Z,72.02
2018-03-23T20:26:18.028Z,71.56
2018-03-23T20:28:51.466Z,71.71
2018-03-23T20:31:28.933Z,71.83
2018-03-23T20:34:02.668Z,72.19
2018-03-23T20:36:36.717Z,72.36
2018-03-23T20:39:09.909Z,72.74
2018-03-23T20:41:44.168Z,73.16
2018-03-23T20:44:19.394Z,73.29
2018-03-23T20:46:52.796Z,72.88
2018-03-23T20:49:26.540Z,72.56
2018-03-23T20:52:03.941Z,72.76
2018-03-23T20:54:37.296Z,72.82
2018-03-23T20:57:10.551Z,72.98
2018-03-23T20:59:44.484Z,73.39
2018-03-23T21:02:18.487Z,73.54
2018-03-23T21:04:51.463Z,73.43
2018-03-23T21:09:53.543Z,73.89
2018-03-23T21:12:34.122Z,74.59
2018-03-23T21:15:07.442Z,75.04
2018-03-23T21:17:41.387Z,75.33
2018-03-23T21:20:15.001Z,75.39
2018-03-23T21:22:48.461Z,75.61
2018-03-23T21:25:22.099Z,75.65
2018-03-23T21:27:55.134Z,76.14
2018-03-23T21:30:28.607Z,76.25
2018-03-23T21:33:02.533Z,76.56
2018-03-23T21:35:35.940Z,76.70
2018-03-23T21:38:09.969Z,76.78
2018-03-23T21:40:43.465Z,76.82
2018-03-23T21:43:17.081Z,77.12
2018-03-23T21:45:50.225Z,77.22
2018-03-23T21:48:23.681Z,77.52
2018-03-23T21:50:56.898Z,77.63
2018-03-23T21:53:30.057Z,77.59
2018-03-23T21:56:08.253Z,77.41
2018-03-23T21:58:42.702Z,77.47
2018-03-23T22:01:15.939Z,77.80
2018-03-23T22:03:49.416Z,77.91
2018-03-23T22:06:22.569Z,77.55
2018-03-23T22:08:56.036Z,77.78
2018-03-23T22:11:30.186Z,77.96
2018-03-23T22:14:04.712Z,78.11
2018-03-23T22:16:37.911Z,78.64
2018-03-23T22:19:11.130Z,78.24
2018-03-23T22:21:44.165Z,78.40
2018-03-23T22:24:17.185Z,78.40
2018-03-23T22:26:50.542Z,78.57
2018-03-23T22:29:24.028Z,78.69
2018-03-23T22:31:57.995Z,78.61
2018-03-23T22:34:31.942Z,78.91
2018-03-23T22:37:05.382Z,78.80
2018-03-23T22:39:39.719Z,78.62
2018-03-23T22:42:17.570Z,78.43
2018-03-23T22:44:50.761Z,79.12
2018-03-23T22:47:24.509Z,78.87
2018-03-23T22:49:57.776Z,79.10
2018-03-23T22:52:30.846Z,79.34
2018-03-23T22:55:04.475Z,79.50
2018-03-23T22:57:37.953Z,79.65
2018-03-23T23:00:11.003Z,79.78
2018-03-23T23:02:44.774Z,79.91
2018-03-23T23:05:18.378Z,79.93
2018-03-23T23:07:51.461Z,79.95
2018-03-23T23:10:24.869Z,79.97
2018-03-23T23:13:02.148Z,79.97
2018-03-23T23:15:35.574Z,80.09
2018-03-23T23:18:09.855Z,80.29
2018-03-23T23:20:45.031Z,81.28
2018-03-23T23:23:18.276Z,81.78
2018-03-23T23:25:51.890Z,81.83
2018-03-23T23:28:25.186Z,82.12
2018-03-23T23:30:59.019Z,81.92
2018-03-23T23:33:32.791Z,81.92
2018-03-23T23:36:05.901Z,82.07
2018-03-23T23:38:39.017Z,81.76
2018-03-23T23:41:12.711Z,81.73
2018-03-23T23:43:49.478Z,81.82
2018-03-23T23:46:23.608Z,81.91
2018-03-23T23:48:57.384Z,81.80
2018-03-23T23:51:30.558Z,81.31
2018-03-23T23:54:04.028Z,80.99
2018-03-23T23:56:38.210Z,81.03
2018-03-23T23:59:12.785Z,81.11
